Terminal Aerodrome Forecast
Issued by NWS

Home | Current Version | Previous Version | Graphics & Text | Print | Product List | Glossary On
Versions: 1 2 3 4 5 6 7 8 9 10 11 12 13 14 15 16 17 18 19 20 21 22 23 24 25 26 27 28 29 30 31 32 33 34 35 36 37 38 39
000
FTUS43 KGRB 011141
TAFRHI
TAF
KRHI 011141Z 0112/0212 VRB03KT 3SM BR SCT003 BKN010
      TEMPO 0112/0114 1SM BR BKN003
     FM011400 21006KT P6SM SCT007 BKN015
     FM011800 21010G15KT P6SM SCT020 SCT200
     FM020400 VRB03KT 3SM BR SCT200
      TEMPO 0208/0212 1SM BR BKN005=

USA.gov is the U.S. government's official web portal to all federal, state and local government web resources and services.